createdAt,value
2017-02-09T00:00:01.918Z,8.5
2017-02-09T00:05:01.859Z,8.5
2017-02-09T00:10:01.934Z,8.6
2017-02-09T00:15:01.747Z,8.5
2017-02-09T00:20:01.217Z,8.6
2017-02-09T00:25:02.006Z,8.4
2017-02-09T00:30:01.888Z,8.5
2017-02-09T00:35:01.279Z,8.5
2017-02-09T00:40:01.268Z,8.5
2017-02-09T00:45:02.123Z,8.5
2017-02-09T00:50:01.578Z,8.5
2017-02-09T00:55:01.379Z,8.4
2017-02-09T01:00:02.145Z,8.4
2017-02-09T01:05:01.439Z,8.5
2017-02-09T01:10:02.109Z,8.5
2017-02-09T01:15:01.888Z,8.4
2017-02-09T01:20:01.294Z,8.4
2017-02-09T01:25:01.978Z,8.4
2017-02-09T01:30:02.074Z,8.4
2017-02-09T01:35:01.329Z,8.5
2017-02-09T01:40:02.063Z,8.5
2017-02-09T01:45:01.239Z,8.4
2017-02-09T01:50:01.661Z,8.5
2017-02-09T01:55:01.383Z,8.5
2017-02-09T02:00:01.324Z,8.4
2017-02-09T02:05:01.952Z,8.5
2017-02-09T02:10:01.728Z,8.4
2017-02-09T02:15:02.129Z,8.4
2017-02-09T02:20:01.621Z,8.4
2017-02-09T02:25:01.344Z,8.4
2017-02-09T02:30:02.122Z,8.6
2017-02-09T02:35:01.458Z,8.4
2017-02-09T02:40:01.297Z,8.4
2017-02-09T02:45:02.090Z,8.4
2017-02-09T02:50:01.295Z,8.4
2017-02-09T02:55:02.096Z,8.4
2017-02-09T03:00:01.236Z,8.4
2017-02-09T03:05:01.957Z,8.3
2017-02-09T03:10:01.765Z,8.3
2017-02-09T03:15:01.631Z,8.2
2017-02-09T03:20:02.128Z,8.3
2017-02-09T03:25:02.021Z,8.3
2017-02-09T03:30:01.505Z,8.2
2017-02-09T03:35:01.300Z,8.2
2017-02-09T03:40:02.296Z,8.2
2017-02-09T03:45:01.631Z,8.1
2017-02-09T03:50:02.211Z,8.1
2017-02-09T03:55:02.172Z,8.2
2017-02-09T04:00:01.419Z,8.2
2017-02-09T04:05:01.852Z,8.2
2017-02-09T04:10:01.383Z,8.2
2017-02-09T04:15:01.530Z,8.1
2017-02-09T04:20:01.787Z,8
2017-02-09T04:25:02.094Z,8
2017-02-09T04:30:01.207Z,8.1
2017-02-09T04:35:01.550Z,8.1
2017-02-09T04:40:01.835Z,8.1
2017-02-09T04:45:01.302Z,8.1
2017-02-09T04:50:01.986Z,8.2
2017-02-09T04:55:01.271Z,8.2
2017-02-09T05:00:01.372Z,8.1
2017-02-09T05:05:01.250Z,8.1
2017-02-09T05:10:01.984Z,8.2
2017-02-09T05:15:01.984Z,8.2
2017-02-09T05:20:01.358Z,8.3
2017-02-09T05:25:01.216Z,8.2
2017-02-09T05:30:01.679Z,8.2
2017-02-09T05:35:01.597Z,8.2
2017-02-09T05:40:01.904Z,8.2
2017-02-09T05:45:01.583Z,8.2
2017-02-09T05:50:01.400Z,8.2
2017-02-09T05:55:01.992Z,8.3
2017-02-09T06:00:01.250Z,8.3
2017-02-09T06:05:01.429Z,8.3
2017-02-09T06:10:01.337Z,8.2
2017-02-09T06:15:02.018Z,8.1
2017-02-09T06:20:01.826Z,8.2
2017-02-09T06:25:01.546Z,8.2
2017-02-09T06:30:01.815Z,8.2
2017-02-09T06:35:01.385Z,8.2
2017-02-09T06:40:01.201Z,8.1
2017-02-09T06:45:01.675Z,8
2017-02-09T06:50:01.438Z,8
2017-02-09T06:55:01.984Z,8
2017-02-09T07:00:01.362Z,7.9
2017-02-09T07:05:01.925Z,7.8
2017-02-09T07:10:01.281Z,7.8
2017-02-09T07:15:01.907Z,7.8
2017-02-09T07:20:01.824Z,7.8
2017-02-09T07:25:02.047Z,7.8
2017-02-09T07:30:01.641Z,7.6
2017-02-09T07:35:01.472Z,7.6
2017-02-09T07:40:01.565Z,7.6
2017-02-09T07:45:02.075Z,7.5
2017-02-09T07:50:01.854Z,7.4
2017-02-09T07:55:01.619Z,7.4
2017-02-09T08:00:01.867Z,7.5
2017-02-09T08:05:02.208Z,7.5
2017-02-09T08:10:01.756Z,7.3
2017-02-09T08:15:02.058Z,7.3
2017-02-09T08:20:01.668Z,7.4
2017-02-09T08:25:01.625Z,7.3
2017-02-09T08:30:01.192Z,7.3
2017-02-09T08:35:01.734Z,7.2
2017-02-09T08:40:01.770Z,7.3
2017-02-09T08:45:01.324Z,7.2
2017-02-09T08:50:01.806Z,7.3
2017-02-09T08:55:01.461Z,7.3
2017-02-09T09:00:01.700Z,7.4
2017-02-09T09:05:01.598Z,7.2
2017-02-09T09:10:01.804Z,7.2
2017-02-09T09:15:01.827Z,7.3
2017-02-09T09:20:01.604Z,7.4
2017-02-09T09:25:01.565Z,7.5
2017-02-09T09:30:01.889Z,7.3
2017-02-09T09:35:02.109Z,7.2
2017-02-09T09:40:01.799Z,7.4
2017-02-09T09:45:01.411Z,7.3
2017-02-09T09:50:01.556Z,7.4
2017-02-09T09:55:01.220Z,7.4
2017-02-09T10:00:01.569Z,7.4
2017-02-09T10:05:01.611Z,7.4
2017-02-09T10:10:01.455Z,7.3
2017-02-09T10:15:01.941Z,7.3
2017-02-09T10:20:01.746Z,7.3
2017-02-09T10:25:01.711Z,7.5
2017-02-09T10:30:01.571Z,7.4
2017-02-09T10:35:01.416Z,7.3
2017-02-09T10:40:01.570Z,7.2
2017-02-09T10:45:01.735Z,7.2
2017-02-09T10:50:01.330Z,7.2
2017-02-09T10:55:01.881Z,7.2
2017-02-09T11:00:01.228Z,7.4
2017-02-09T11:05:02.090Z,7.3
2017-02-09T11:10:01.620Z,7.2
2017-02-09T11:15:01.471Z,7.1
2017-02-09T11:20:01.377Z,7.2
2017-02-09T11:25:01.730Z,7.2
2017-02-09T11:30:02.065Z,7.2
2017-02-09T11:35:01.337Z,7.2
2017-02-09T11:40:01.380Z,7.2
2017-02-09T11:45:01.650Z,7.1
2017-02-09T11:50:01.971Z,7.2
2017-02-09T11:55:01.516Z,7.1
2017-02-09T12:00:01.842Z,7.1
2017-02-09T12:05:01.771Z,7.1
2017-02-09T12:10:01.639Z,7
2017-02-09T12:15:02.027Z,7.1
2017-02-09T12:20:01.645Z,7
2017-02-09T12:25:01.875Z,7
2017-02-09T12:30:02.149Z,7
2017-02-09T12:35:01.548Z,7
2017-02-09T12:40:01.385Z,6.8
2017-02-09T12:45:01.262Z,6.9
2017-02-09T12:50:01.234Z,6.8
2017-02-09T12:55:01.731Z,7
2017-02-09T13:00:01.968Z,7
2017-02-09T13:05:01.888Z,7
2017-02-09T13:10:01.762Z,7
2017-02-09T13:15:02.042Z,7
2017-02-09T13:20:01.427Z,7.1
2017-02-09T13:25:01.479Z,7
2017-02-09T13:30:01.805Z,7.1
2017-02-09T13:35:01.659Z,7
2017-02-09T13:40:01.395Z,7.1
2017-02-09T13:45:01.299Z,7.1
2017-02-09T13:50:02.154Z,7
2017-02-09T13:55:01.744Z,7.1
2017-02-09T14:00:02.120Z,7.1
2017-02-09T14:05:01.495Z,7
2017-02-09T14:10:01.223Z,7
2017-02-09T14:15:02.115Z,7.2
2017-02-09T14:20:01.285Z,7
2017-02-09T14:25:01.959Z,7.1
2017-02-09T14:30:01.696Z,7.1
2017-02-09T14:35:01.688Z,7
2017-02-09T14:40:02.135Z,7.1
2017-02-09T14:45:01.536Z,7.1
2017-02-09T14:50:01.716Z,7.1
2017-02-09T14:55:01.878Z,7.2
2017-02-09T15:00:01.467Z,7.2
2017-02-09T15:05:01.234Z,7.2
2017-02-09T15:10:01.928Z,7.1
2017-02-09T15:15:01.575Z,7.2
2017-02-09T15:20:02.150Z,7.1
2017-02-09T15:25:01.137Z,7.2
2017-02-09T15:30:01.456Z,7.2
2017-02-09T15:35:01.807Z,7.2
2017-02-09T15:40:01.596Z,7.2
2017-02-09T15:45:01.249Z,7.2
2017-02-09T15:50:01.498Z,7.2
2017-02-09T15:55:01.506Z,7.1
2017-02-09T16:00:01.733Z,7.2
2017-02-09T16:05:01.897Z,7.2
2017-02-09T16:10:01.867Z,7.2
2017-02-09T16:15:01.270Z,7.2
2017-02-09T16:20:01.490Z,7.3
2017-02-09T16:25:01.541Z,7.4
2017-02-09T16:30:01.872Z,7.2
2017-02-09T16:35:01.765Z,7.2
2017-02-09T16:40:01.706Z,7.2
2017-02-09T16:45:02.074Z,7.2
2017-02-09T16:50:01.763Z,7.2
2017-02-09T16:55:01.403Z,7.2
2017-02-09T17:00:01.703Z,7.3
2017-02-09T17:05:02.039Z,7.4
2017-02-09T17:10:01.309Z,7.3
2017-02-09T17:15:02.163Z,7.3
2017-02-09T17:20:02.068Z,7.3
2017-02-09T17:25:01.713Z,7.3
2017-02-09T17:30:01.899Z,7.2
2017-02-09T17:35:01.795Z,7.3
2017-02-09T17:40:01.610Z,7.4
2017-02-09T17:45:02.133Z,7.4
2017-02-09T17:50:01.908Z,7.3
2017-02-09T17:55:01.956Z,7.4
2017-02-09T18:00:01.255Z,7.3
2017-02-09T18:05:01.614Z,7.3
2017-02-09T18:10:02.135Z,7.3
2017-02-09T18:15:01.698Z,7.4
2017-02-09T18:20:02.141Z,7.4
2017-02-09T18:25:02.060Z,7.5
2017-02-09T18:30:01.484Z,7.6
2017-02-09T18:35:01.714Z,7.6
2017-02-09T18:40:01.509Z,7.5
2017-02-09T18:45:01.251Z,7.5
2017-02-09T18:50:01.711Z,7.6
2017-02-09T18:55:01.639Z,7.6
2017-02-09T19:00:01.431Z,7.7
2017-02-09T19:05:01.333Z,7.6
2017-02-09T19:10:01.262Z,7.8
2017-02-09T19:15:01.848Z,7.8
2017-02-09T19:20:01.536Z,7.9
2017-02-09T19:25:02.219Z,7.8
2017-02-09T19:30:01.943Z,7.9
2017-02-09T19:35:01.897Z,7.8
2017-02-09T19:40:02.172Z,7.9
2017-02-09T19:45:02.238Z,7.9
2017-02-09T19:50:01.653Z,7.8
2017-02-09T19:55:02.168Z,7.9
2017-02-09T20:00:01.648Z,8
2017-02-09T20:05:01.407Z,8
2017-02-09T20:10:01.236Z,8
2017-02-09T20:15:01.576Z,8
2017-02-09T20:20:01.804Z,8
2017-02-09T20:25:01.732Z,8
2017-02-09T20:30:01.580Z,8.1
2017-02-09T20:35:02.044Z,8.1
2017-02-09T20:40:02.009Z,8
2017-02-09T20:45:02.075Z,8.1
2017-02-09T20:50:02.235Z,8.2
2017-02-09T20:55:02.189Z,8.1
2017-02-09T21:00:01.218Z,8.1
2017-02-09T21:05:01.576Z,8.2
2017-02-09T21:10:01.616Z,8.4
2017-02-09T21:15:01.431Z,8.3
2017-02-09T21:20:02.163Z,8.4
2017-02-09T21:25:01.195Z,8.4
2017-02-09T21:30:02.187Z,8.4
2017-02-09T21:35:01.843Z,8.4
2017-02-09T21:40:01.382Z,8.5
2017-02-09T21:45:01.769Z,8.5
2017-02-09T21:50:01.396Z,8.5
2017-02-09T21:55:01.563Z,8.5
2017-02-09T22:00:02.020Z,8.4
2017-02-09T22:05:01.989Z,8.4
2017-02-09T22:10:01.705Z,8.5
2017-02-09T22:15:01.389Z,8.4
2017-02-09T22:20:01.550Z,8.4
2017-02-09T22:25:01.429Z,8.3
2017-02-09T22:30:01.353Z,8.3
2017-02-09T22:35:01.789Z,8.2
2017-02-09T22:40:01.496Z,8.4
2017-02-09T22:45:02.176Z,8.4
2017-02-09T22:50:11.225Z,8.4
2017-02-09T22:55:01.645Z,8.4
2017-02-09T23:00:01.759Z,8.4
2017-02-09T23:05:01.898Z,8.4
2017-02-09T23:10:01.294Z,8.5
2017-02-09T23:15:01.797Z,8.5
2017-02-09T23:20:01.500Z,8.5
2017-02-09T23:25:01.864Z,8.5
2017-02-09T23:30:02.163Z,8.6
2017-02-09T23:35:01.491Z,8.5
2017-02-09T23:40:02.135Z,8.6
2017-02-09T23:45:01.278Z,8.7
2017-02-09T23:50:01.479Z,8.6
2017-02-09T23:55:01.338Z,8.5
